sensor_id;sensor_type;location;lat;lon;timestamp;pressure;altitude;pressure_sealevel;temperature;humidity
86048;BME280;76643;42.822;23.352;2024-03-23T00:53:26;95604.06;;;1.75;71.61
86048;BME280;76643;42.822;23.352;2024-03-23T00:55:52;95599.31;;;1.72;72.40
86048;BME280;76643;42.822;23.352;2024-03-23T00:58:17;95601.84;;;1.66;72.08
86048;BME280;76643;42.822;23.352;2024-03-23T01:00:43;95602.69;;;1.52;72.36
86048;BME280;76643;42.822;23.352;2024-03-23T01:03:08;95597.38;;;1.47;72.50
86048;BME280;76643;42.822;23.352;2024-03-23T01:05:34;95607.16;;;1.43;72.73
86048;BME280;76643;42.822;23.352;2024-03-23T01:07:59;95608.09;;;1.42;72.67
86048;BME280;76643;42.822;23.352;2024-03-23T01:10:25;95608.09;;;1.42;73.45
86048;BME280;76643;42.822;23.352;2024-03-23T01:12:50;95608.06;;;1.36;73.37
86048;BME280;76643;42.822;23.352;2024-03-23T01:15:16;95600.00;;;1.32;73.58
86048;BME280;76643;42.822;23.352;2024-03-23T01:17:41;95601.41;;;1.35;73.34
86048;BME280;76643;42.822;23.352;2024-03-23T01:20:07;95604.13;;;1.33;72.89
86048;BME280;76643;42.822;23.352;2024-03-23T01:22:33;95601.28;;;1.22;73.02
86048;BME280;76643;42.822;23.352;2024-03-23T01:24:58;95605.78;;;1.20;73.65
86048;BME280;76643;42.822;23.352;2024-03-23T01:27:24;95598.47;;;1.17;74.08
86048;BME280;76643;42.822;23.352;2024-03-23T01:29:49;95599.94;;;1.26;73.36
86048;BME280;76643;42.822;23.352;2024-03-23T01:32:16;95589.25;;;1.16;74.08
86048;BME280;76643;42.822;23.352;2024-03-23T01:34:41;95596.50;;;1.12;73.95
86048;BME280;76643;42.822;23.352;2024-03-23T01:37:07;95595.81;;;1.25;73.49
86048;BME280;76643;42.822;23.352;2024-03-23T01:39:32;95598.84;;;1.14;73.78
86048;BME280;76643;42.822;23.352;2024-03-23T01:41:58;95605.44;;;1.29;73.20
86048;BME280;76643;42.822;23.352;2024-03-23T01:44:23;95600.13;;;1.24;73.32
86048;BME280;76643;42.822;23.352;2024-03-23T01:46:49;95602.84;;;1.23;72.69
86048;BME280;76643;42.822;23.352;2024-03-23T01:49:14;95597.75;;;1.23;73.58
86048;BME280;76643;42.822;23.352;2024-03-23T01:51:41;95602.47;;;1.26;72.62
86048;BME280;76643;42.822;23.352;2024-03-23T01:54:07;95602.78;;;1.16;73.71
86048;BME280;76643;42.822;23.352;2024-03-23T01:56:33;95602.31;;;1.06;72.84
86048;BME280;76643;42.822;23.352;2024-03-23T01:59:03;95601.75;;;1.11;73.72
86048;BME280;76643;42.822;23.352;2024-03-23T02:01:28;95606.63;;;1.06;74.25
86048;BME280;76643;42.822;23.352;2024-03-23T02:03:55;95600.56;;;1.07;73.77
86048;BME280;76643;42.822;23.352;2024-03-23T02:06:21;95607.59;;;1.05;73.79
86048;BME280;76643;42.822;23.352;2024-03-23T02:08:47;95607.53;;;0.98;73.88
86048;BME280;76643;42.822;23.352;2024-03-23T02:11:13;95601.19;;;0.94;74.42
86048;BME280;76643;42.822;23.352;2024-03-23T02:13:39;95605.63;;;0.85;74.43
86048;BME280;76643;42.822;23.352;2024-03-23T02:16:05;95594.94;;;0.75;75.35
86048;BME280;76643;42.822;23.352;2024-03-23T02:18:32;95596.25;;;0.71;75.55
86048;BME280;76643;42.822;23.352;2024-03-23T02:20:57;95601.13;;;0.66;76.15
86048;BME280;76643;42.822;23.352;2024-03-23T02:23:23;95601.72;;;0.68;75.48
86048;BME280;76643;42.822;23.352;2024-03-23T02:25:50;95606.41;;;0.65;75.48
86048;BME280;76643;42.822;23.352;2024-03-23T02:28:15;95606.41;;;0.65;75.42
86048;BME280;76643;42.822;23.352;2024-03-23T02:30:42;95604.31;;;0.54;75.64
86048;BME280;76643;42.822;23.352;2024-03-23T02:33:07;95599.66;;;0.57;75.42
86048;BME280;76643;42.822;23.352;2024-03-23T02:35:33;95603.75;;;0.58;75.77
86048;BME280;76643;42.822;23.352;2024-03-23T02:37:59;95606.22;;;0.66;75.19
86048;BME280;76643;42.822;23.352;2024-03-23T02:40:25;95609.28;;;0.76;74.21
86048;BME280;76643;42.822;23.352;2024-03-23T02:42:51;95597.47;;;0.75;74.47
86048;BME280;76643;42.822;23.352;2024-03-23T02:45:16;95598.47;;;0.74;74.43
86048;BME280;76643;42.822;23.352;2024-03-23T02:47:42;95604.94;;;0.77;74.55
86048;BME280;76643;42.822;23.352;2024-03-23T02:50:08;95600.22;;;0.74;74.20
86048;BME280;76643;42.822;23.352;2024-03-23T02:52:34;95608.22;;;0.71;74.71
86048;BME280;76643;42.822;23.352;2024-03-23T02:55:00;95604.41;;;0.46;76.26
86048;BME280;76643;42.822;23.352;2024-03-23T02:57:27;95598.78;;;0.36;75.94
86048;BME280;76643;42.822;23.352;2024-03-23T02:59:53;95602.06;;;0.30;77.08
86048;BME280;76643;42.822;23.352;2024-03-23T03:02:18;95604.31;;;0.25;76.90
86048;BME280;76643;42.822;23.352;2024-03-23T03:04:44;95608.38;;;0.34;76.82
86048;BME280;76643;42.822;23.352;2024-03-23T03:07:09;95590.09;;;0.45;75.59
86048;BME280;76643;42.822;23.352;2024-03-23T03:09:35;95594.59;;;0.43;75.72
86048;BME280;76643;42.822;23.352;2024-03-23T03:12:04;95604.41;;;0.46;76.18
86048;BME280;76643;42.822;23.352;2024-03-23T03:14:29;95599.25;;;0.25;76.34
86048;BME280;76643;42.822;23.352;2024-03-23T03:16:55;95603.00;;;0.29;76.72
86048;BME280;76643;42.822;23.352;2024-03-23T03:19:20;95611.50;;;0.36;76.71
86048;BME280;76643;42.822;23.352;2024-03-23T03:21:46;95605.94;;;0.26;76.71
86048;BME280;76643;42.822;23.352;2024-03-23T03:24:13;95606.72;;;0.26;76.76
86048;BME280;76643;42.822;23.352;2024-03-23T03:26:38;95597.75;;;0.30;76.38
86048;BME280;76643;42.822;23.352;2024-03-23T03:29:04;95605.56;;;0.14;77.60
86048;BME280;76643;42.822;23.352;2024-03-23T03:31:29;95601.63;;;0.12;77.18
86048;BME280;76643;42.822;23.352;2024-03-23T03:33:55;95601.38;;;0.07;77.84
86048;BME280;76643;42.822;23.352;2024-03-23T03:36:20;95597.25;;;0.06;77.90
86048;BME280;76643;42.822;23.352;2024-03-23T03:38:46;95602.84;;;0.01;78.21
86048;BME280;76643;42.822;23.352;2024-03-23T03:41:12;95594.59;;;-0.01;77.87
86048;BME280;76643;42.822;23.352;2024-03-23T03:43:37;95606.81;;;0.04;77.92
86048;BME280;76643;42.822;23.352;2024-03-23T03:46:03;95607.84;;;-0.06;78.50
86048;BME280;76643;42.822;23.352;2024-03-23T03:48:29;95601.88;;;-0.13;78.58
86048;BME280;76643;42.822;23.352;2024-03-23T03:50:55;95595.84;;;-0.12;78.24
86048;BME280;76643;42.822;23.352;2024-03-23T03:53:20;95607.16;;;-0.14;78.35
86048;BME280;76643;42.822;23.352;2024-03-23T03:55:46;95607.22;;;-0.22;79.13
86048;BME280;76643;42.822;23.352;2024-03-23T03:58:11;95609.31;;;-0.26;79.48
86048;BME280;76643;42.822;23.352;2024-03-23T04:00:37;95609.31;;;-0.26;78.29
86048;BME280;76643;42.822;23.352;2024-03-23T04:03:03;95605.53;;;-0.30;78.52
86048;BME280;76643;42.822;23.352;2024-03-23T04:05:28;95610.47;;;-0.28;79.16
86048;BME280;76643;42.822;23.352;2024-03-23T04:07:54;95615.03;;;-0.24;78.49
86048;BME280;76643;42.822;23.352;2024-03-23T04:10:20;95614.69;;;-0.21;78.84
86048;BME280;76643;42.822;23.352;2024-03-23T04:12:46;95612.66;;;-0.25;78.51
86048;BME280;76643;42.822;23.352;2024-03-23T04:15:12;95617.31;;;-0.29;78.74
86048;BME280;76643;42.822;23.352;2024-03-23T04:17:37;95622.59;;;-0.30;78.54
86048;BME280;76643;42.822;23.352;2024-03-23T04:20:03;95623.97;;;-0.28;78.85
86048;BME280;76643;42.822;23.352;2024-03-23T04:22:33;95621.97;;;-0.32;79.34
86048;BME280;76643;42.822;23.352;2024-03-23T04:25:00;95621.22;;;-0.41;79.04
86048;BME280;76643;42.822;23.352;2024-03-23T04:27:25;95616.75;;;-0.39;78.90
86048;BME280;76643;42.822;23.352;2024-03-23T04:29:51;95615.63;;;-0.36;79.43
86048;BME280;76643;42.822;23.352;2024-03-23T04:32:18;95621.78;;;-0.31;78.94
86048;BME280;76643;42.822;23.352;2024-03-23T04:34:44;95626.19;;;-0.25;78.93
86048;BME280;76643;42.822;23.352;2024-03-23T04:37:11;95623.34;;;-0.30;79.07
86048;BME280;76643;42.822;23.352;2024-03-23T04:39:37;95625.44;;;-0.33;78.70
86048;BME280;76643;42.822;23.352;2024-03-23T04:42:03;95625.63;;;-0.35;79.16
86048;BME280;76643;42.822;23.352;2024-03-23T04:44:29;95628.28;;;-0.28;78.29
86048;BME280;76643;42.822;23.352;2024-03-23T04:46:56;95629.16;;;-0.21;77.98
86048;BME280;76643;42.822;23.352;2024-03-23T04:49:21;95629.00;;;-0.20;78.35
86048;BME280;76643;42.822;23.352;2024-03-23T04:51:47;95627.50;;;-0.14;77.89
86048;BME280;76643;42.822;23.352;2024-03-23T04:54:12;95629.09;;;0.02;77.26
86048;BME280;76643;42.822;23.352;2024-03-23T04:56:38;95627.25;;;0.10;77.50
86048;BME280;76643;42.822;23.352;2024-03-23T04:59:04;95635.69;;;0.25;76.96
86048;BME280;76643;42.822;23.352;2024-03-23T05:01:33;95638.16;;;0.33;76.34
86048;BME280;76643;42.822;23.352;2024-03-23T05:03:58;95638.31;;;0.46;75.58
86048;BME280;76643;42.822;23.352;2024-03-23T05:06:24;95630.03;;;0.59;74.67
86048;BME280;76643;42.822;23.352;2024-03-23T05:08:53;95626.44;;;0.53;75.96
86048;BME280;76643;42.822;23.352;2024-03-23T05:11:18;95625.81;;;0.51;75.47
86048;BME280;76643;42.822;23.352;2024-03-23T05:13:45;95623.94;;;0.74;74.46
86048;BME280;76643;42.822;23.352;2024-03-23T05:16:10;95624.09;;;0.87;75.02
86048;BME280;76643;42.822;23.352;2024-03-23T05:18:36;95629.66;;;0.97;73.78
86048;BME280;76643;42.822;23.352;2024-03-23T05:21:02;95631.19;;;1.13;73.49
86048;BME280;76643;42.822;23.352;2024-03-23T05:23:28;95622.13;;;1.25;73.77
86048;BME280;76643;42.822;23.352;2024-03-23T05:25:54;95624.94;;;1.37;72.65
86048;BME280;76643;42.822;23.352;2024-03-23T05:28:23;95630.00;;;1.51;71.88
86048;BME280;76643;42.822;23.352;2024-03-23T05:30:55;95626.75;;;1.64;71.42
86048;BME280;76643;42.822;23.352;2024-03-23T05:33:21;95622.47;;;1.71;71.56
86048;BME280;76643;42.822;23.352;2024-03-23T05:35:47;95619.41;;;1.82;71.00
86048;BME280;76643;42.822;23.352;2024-03-23T05:38:13;95630.97;;;2.06;71.10
86048;BME280;76643;42.822;23.352;2024-03-23T05:40:39;95624.03;;;2.27;69.78
86048;BME280;76643;42.822;23.352;2024-03-23T05:43:08;95624.94;;;2.54;68.54
86048;BME280;76643;42.822;23.352;2024-03-23T05:45:34;95618.72;;;2.76;68.88
86048;BME280;76643;42.822;23.352;2024-03-23T05:48:00;95614.81;;;2.86;66.72
86048;BME280;76643;42.822;23.352;2024-03-23T05:50:25;95612.09;;;2.88;66.94
86048;BME280;76643;42.822;23.352;2024-03-23T05:52:51;95618.81;;;3.02;66.43
86048;BME280;76643;42.822;23.352;2024-03-23T05:55:16;95617.28;;;3.21;66.73
86048;BME280;76643;42.822;23.352;2024-03-23T05:57:42;95613.91;;;3.14;67.07
86048;BME280;76643;42.822;23.352;2024-03-23T06:00:08;95612.59;;;3.44;67.06
86048;BME280;76643;42.822;23.352;2024-03-23T06:02:44;95614.94;;;3.71;65.21
86048;BME280;76643;42.822;23.352;2024-03-23T06:05:13;95616.13;;;3.88;64.72
86048;BME280;76643;42.822;23.352;2024-03-23T06:07:38;95615.09;;;4.09;64.44
86048;BME280;76643;42.822;23.352;2024-03-23T06:10:07;95610.16;;;4.14;64.44
86048;BME280;76643;42.822;23.352;2024-03-23T06:12:33;95612.50;;;4.35;63.10
86048;BME280;76643;42.822;23.352;2024-03-23T06:14:58;95606.72;;;4.53;61.16
86048;BME280;76643;42.822;23.352;2024-03-23T06:17:24;95613.56;;;4.65;60.82
86048;BME280;76643;42.822;23.352;2024-03-23T06:19:49;95602.47;;;4.78;62.45
86048;BME280;76643;42.822;23.352;2024-03-23T06:22:15;95606.22;;;4.75;62.51
86048;BME280;76643;42.822;23.352;2024-03-23T06:24:40;95608.84;;;4.62;63.52
86048;BME280;76643;42.822;23.352;2024-03-23T06:27:06;95604.16;;;4.53;63.10
86048;BME280;76643;42.822;23.352;2024-03-23T06:29:31;95601.13;;;4.69;63.74
86048;BME280;76643;42.822;23.352;2024-03-23T06:31:57;95610.09;;;4.47;63.19
86048;BME280;76643;42.822;23.352;2024-03-23T06:34:23;95609.94;;;4.79;63.20
86048;BME280;76643;42.822;23.352;2024-03-23T06:36:49;95613.41;;;4.60;64.02
86048;BME280;76643;42.822;23.352;2024-03-23T06:39:15;95613.22;;;4.55;62.92
86048;BME280;76643;42.822;23.352;2024-03-23T06:41:51;95603.06;;;4.23;65.37
86048;BME280;76643;42.822;23.352;2024-03-23T06:44:17;95601.09;;;4.75;62.97
86048;BME280;76643;42.822;23.352;2024-03-23T06:46:43;95609.50;;;4.96;61.59
86048;BME280;76643;42.822;23.352;2024-03-23T06:49:08;95601.72;;;4.64;62.03
86048;BME280;76643;42.822;23.352;2024-03-23T06:51:33;95605.94;;;4.97;61.53
86048;BME280;76643;42.822;23.352;2024-03-23T06:53:59;95601.06;;;5.20;61.48
86048;BME280;76643;42.822;23.352;2024-03-23T06:56:24;95601.34;;;5.36;60.28
86048;BME280;76643;42.822;23.352;2024-03-23T06:58:50;95591.81;;;5.43;60.87
86048;BME280;76643;42.822;23.352;2024-03-23T07:01:16;95597.19;;;5.11;61.84
86048;BME280;76643;42.822;23.352;2024-03-23T07:03:41;95592.41;;;5.14;62.30
86048;BME280;76643;42.822;23.352;2024-03-23T07:06:09;95588.72;;;5.35;61.43
86048;BME280;76643;42.822;23.352;2024-03-23T07:08:35;95586.69;;;5.12;61.28
86048;BME280;76643;42.822;23.352;2024-03-23T07:11:01;95581.75;;;5.66;61.64
86048;BME280;76643;42.822;23.352;2024-03-23T07:13:27;95584.22;;;5.79;59.81
86048;BME280;76643;42.822;23.352;2024-03-23T07:15:53;95583.31;;;5.67;60.06
86048;BME280;76643;42.822;23.352;2024-03-23T07:18:20;95585.16;;;5.60;61.36
86048;BME280;76643;42.822;23.352;2024-03-23T07:20:55;95583.13;;;5.94;62.01
86048;BME280;76643;42.822;23.352;2024-03-23T07:23:24;95574.38;;;6.37;60.28
86048;BME280;76643;42.822;23.352;2024-03-23T07:26:00;95575.94;;;6.38;61.36
86048;BME280;76643;42.822;23.352;2024-03-23T07:28:26;95574.47;;;6.49;57.73
86048;BME280;76643;42.822;23.352;2024-03-23T07:31:05;95583.97;;;6.30;57.84
86048;BME280;76643;42.822;23.352;2024-03-23T07:33:31;95567.84;;;6.71;56.64
86048;BME280;76643;42.822;23.352;2024-03-23T07:35:57;95564.16;;;6.97;56.67
86048;BME280;76643;42.822;23.352;2024-03-23T07:38:23;95568.16;;;6.93;54.73
86048;BME280;76643;42.822;23.352;2024-03-23T07:40:48;95560.31;;;6.88;55.16
86048;BME280;76643;42.822;23.352;2024-03-23T07:43:19;95559.59;;;7.10;53.72
86048;BME280;76643;42.822;23.352;2024-03-23T07:45:51;95560.34;;;7.40;54.31
86048;BME280;76643;42.822;23.352;2024-03-23T07:48:17;95559.84;;;7.61;53.70
86048;BME280;76643;42.822;23.352;2024-03-23T07:50:42;95552.53;;;7.70;54.12
86048;BME280;76643;42.822;23.352;2024-03-23T07:53:08;95550.31;;;8.08;54.73
86048;BME280;76643;42.822;23.352;2024-03-23T07:55:33;95541.78;;;8.19;53.77
86048;BME280;76643;42.822;23.352;2024-03-23T07:57:59;95539.75;;;8.33;54.52
86048;BME280;76643;42.822;23.352;2024-03-23T08:00:24;95541.78;;;8.19;53.83
86048;BME280;76643;42.822;23.352;2024-03-23T08:02:51;95543.06;;;8.56;52.44
86048;BME280;76643;42.822;23.352;2024-03-23T08:05:16;95545.34;;;8.41;55.37
86048;BME280;76643;42.822;23.352;2024-03-23T08:07:42;95539.97;;;8.71;53.08
86048;BME280;76643;42.822;23.352;2024-03-23T08:10:07;95531.50;;;8.59;52.54
86048;BME280;76643;42.822;23.352;2024-03-23T08:12:33;95524.63;;;8.93;54.12
86048;BME280;76643;42.822;23.352;2024-03-23T08:14:58;95529.38;;;9.29;52.38
86048;BME280;76643;42.822;23.352;2024-03-23T08:17:24;95535.38;;;9.18;52.61
86048;BME280;76643;42.822;23.352;2024-03-23T08:19:49;95532.34;;;9.21;53.77
86048;BME280;76643;42.822;23.352;2024-03-23T08:22:15;95525.34;;;9.05;53.00
86048;BME280;76643;42.822;23.352;2024-03-23T08:24:40;95523.34;;;9.56;52.82
86048;BME280;76643;42.822;23.352;2024-03-23T08:27:06;95519.56;;;9.64;52.04
86048;BME280;76643;42.822;23.352;2024-03-23T08:29:31;95517.66;;;10.09;53.31
86048;BME280;76643;42.822;23.352;2024-03-23T08:31:56;95511.78;;;10.57;52.93
86048;BME280;76643;42.822;23.352;2024-03-23T08:34:22;95510.88;;;10.46;50.70
86048;BME280;76643;42.822;23.352;2024-03-23T08:36:48;95496.75;;;10.81;49.78
86048;BME280;76643;42.822;23.352;2024-03-23T08:39:14;95506.28;;;11.02;50.97
86048;BME280;76643;42.822;23.352;2024-03-23T08:41:39;95505.63;;;11.43;50.89
86048;BME280;76643;42.822;23.352;2024-03-23T08:44:05;95502.50;;;11.78;48.94
86048;BME280;76643;42.822;23.352;2024-03-23T08:46:30;95499.09;;;11.72;48.22
86048;BME280;76643;42.822;23.352;2024-03-23T08:48:56;95490.31;;;11.78;47.57
86048;BME280;76643;42.822;23.352;2024-03-23T08:51:21;95485.88;;;12.20;46.81
86048;BME280;76643;42.822;23.352;2024-03-23T08:53:46;95487.94;;;11.40;46.14
86048;BME280;76643;42.822;23.352;2024-03-23T08:56:12;95485.84;;;11.05;48.47
86048;BME280;76643;42.822;23.352;2024-03-23T08:58:38;95474.50;;;11.80;49.73
86048;BME280;76643;42.822;23.352;2024-03-23T09:01:09;95479.50;;;11.91;46.05
86048;BME280;76643;42.822;23.352;2024-03-23T09:03:35;95474.47;;;11.70;46.18
86048;BME280;76643;42.822;23.352;2024-03-23T09:06:02;95469.75;;;11.67;49.18
86048;BME280;76643;42.822;23.352;2024-03-23T09:08:31;95457.09;;;12.27;46.86
86048;BME280;76643;42.822;23.352;2024-03-23T09:10:56;95452.53;;;12.59;45.23
86048;BME280;76643;42.822;23.352;2024-03-23T09:13:22;95455.69;;;12.81;47.01
86048;BME280;76643;42.822;23.352;2024-03-23T09:15:51;95451.03;;;12.98;45.80
86048;BME280;76643;42.822;23.352;2024-03-23T09:18:17;95440.16;;;13.31;44.99
86048;BME280;76643;42.822;23.352;2024-03-23T09:20:43;95430.50;;;13.52;44.71
86048;BME280;76643;42.822;23.352;2024-03-23T09:23:09;95428.66;;;13.83;44.51
86048;BME280;76643;42.822;23.352;2024-03-23T09:25:38;95425.19;;;14.07;43.25
86048;BME280;76643;42.822;23.352;2024-03-23T09:28:05;95414.94;;;14.26;44.24
86048;BME280;76643;42.822;23.352;2024-03-23T09:30:32;95410.53;;;13.22;43.58
86048;BME280;76643;42.822;23.352;2024-03-23T09:32:58;95408.09;;;13.71;43.95
86048;BME280;76643;42.822;23.352;2024-03-23T09:35:24;95407.13;;;14.26;44.77
86048;BME280;76643;42.822;23.352;2024-03-23T09:37:49;95400.31;;;14.40;41.37
86048;BME280;76643;42.822;23.352;2024-03-23T09:40:15;95396.91;;;14.44;43.06
86048;BME280;76643;42.822;23.352;2024-03-23T09:42:41;95400.50;;;14.54;41.22
86048;BME280;76643;42.822;23.352;2024-03-23T09:45:17;95403.47;;;12.98;44.01
86048;BME280;76643;42.822;23.352;2024-03-23T09:47:44;95399.59;;;12.85;42.87
86048;BME280;76643;42.822;23.352;2024-03-23T09:50:13;95394.38;;;12.95;43.15
86048;BME280;76643;42.822;23.352;2024-03-23T09:52:39;95385.31;;;13.23;42.37
86048;BME280;76643;42.822;23.352;2024-03-23T09:55:04;95375.44;;;14.04;41.78
86048;BME280;76643;42.822;23.352;2024-03-23T09:57:30;95380.50;;;14.44;39.63
86048;BME280;76643;42.822;23.352;2024-03-23T09:59:55;95378.56;;;13.07;42.06
86048;BME280;76643;42.822;23.352;2024-03-23T10:02:23;95369.19;;;14.15;42.13
86048;BME280;76643;42.822;23.352;2024-03-23T10:04:49;95363.38;;;14.72;40.83
86048;BME280;76643;42.822;23.352;2024-03-23T10:07:21;95362.88;;;14.70;39.11
86048;BME280;76643;42.822;23.352;2024-03-23T10:09:47;95355.56;;;15.05;37.55
86048;BME280;76643;42.822;23.352;2024-03-23T10:12:16;95360.09;;;14.56;37.26
86048;BME280;76643;42.822;23.352;2024-03-23T10:14:42;95350.25;;;14.48;37.97
86048;BME280;76643;42.822;23.352;2024-03-23T10:17:15;95353.13;;;13.98;37.61
86048;BME280;76643;42.822;23.352;2024-03-23T10:19:49;95343.03;;;14.74;39.12
86048;BME280;76643;42.822;23.352;2024-03-23T10:22:19;95344.84;;;15.07;37.82
86048;BME280;76643;42.822;23.352;2024-03-23T10:24:45;95345.09;;;14.38;33.34
86048;BME280;76643;42.822;23.352;2024-03-23T10:27:18;95336.56;;;14.66;33.70
86048;BME280;76643;42.822;23.352;2024-03-23T10:29:45;95339.03;;;13.99;34.83
86048;BME280;76643;42.822;23.352;2024-03-23T10:32:12;95327.69;;;14.33;33.65
86048;BME280;76643;42.822;23.352;2024-03-23T10:34:38;95322.53;;;14.96;34.13
86048;BME280;76643;42.822;23.352;2024-03-23T10:37:04;95309.81;;;14.89;33.56
86048;BME280;76643;42.822;23.352;2024-03-23T10:39:32;95307.91;;;15.52;34.64
86048;BME280;76643;42.822;23.352;2024-03-23T10:42:03;95295.22;;;16.06;35.81
86048;BME280;76643;42.822;23.352;2024-03-23T10:44:30;95289.81;;;16.21;34.05
86048;BME280;76643;42.822;23.352;2024-03-23T10:47:00;95290.22;;;16.28;31.28
86048;BME280;76643;42.822;23.352;2024-03-23T10:49:30;95288.47;;;16.24;31.86
86048;BME280;76643;42.822;23.352;2024-03-23T10:52:00;95279.56;;;16.25;28.48
86048;BME280;76643;42.822;23.352;2024-03-23T10:54:26;95273.56;;;14.93;31.36
86048;BME280;76643;42.822;23.352;2024-03-23T10:59:25;95269.91;;;15.17;30.34
86048;BME280;76643;42.822;23.352;2024-03-23T11:01:57;95259.25;;;15.85;31.10
86048;BME280;76643;42.822;23.352;2024-03-23T11:04:32;95255.63;;;16.18;30.74
86048;BME280;76643;42.822;23.352;2024-03-23T11:06:58;95244.13;;;16.19;29.97
86048;BME280;76643;42.822;23.352;2024-03-23T11:09:43;95240.88;;;16.78;30.58
86048;BME280;76643;42.822;23.352;2024-03-23T11:14:49;95229.47;;;17.14;28.85
86048;BME280;76643;42.822;23.352;2024-03-23T11:17:22;95234.53;;;15.77;29.18
86048;BME280;76643;42.822;23.352;2024-03-23T11:25:22;95208.97;;;17.21;29.17
86048;BME280;76643;42.822;23.352;2024-03-23T11:27:50;95199.47;;;17.12;29.54
86048;BME280;76643;42.822;23.352;2024-03-23T11:30:20;95202.88;;;17.53;27.92
86048;BME280;76643;42.822;23.352;2024-03-23T11:32:51;95198.41;;;17.89;27.58
86048;BME280;76643;42.822;23.352;2024-03-23T11:38:09;95184.34;;;18.43;27.06
86048;BME280;76643;42.822;23.352;2024-03-23T11:40:45;95191.41;;;16.81;27.66
86048;BME280;76643;42.822;23.352;2024-03-23T11:43:13;95180.78;;;17.05;27.77
86048;BME280;76643;42.822;23.352;2024-03-23T11:45:49;95171.81;;;16.33;27.37
86048;BME280;76643;42.822;23.352;2024-03-23T11:48:23;95166.91;;;17.18;28.00
86048;BME280;76643;42.822;23.352;2024-03-23T11:50:54;95160.13;;;17.17;26.70
86048;BME280;76643;42.822;23.352;2024-03-23T11:53:21;95153.78;;;17.59;27.04
86048;BME280;76643;42.822;23.352;2024-03-23T11:55:57;95147.59;;;17.41;26.68
86048;BME280;76643;42.822;23.352;2024-03-23T11:58:24;95145.78;;;17.99;26.85
86048;BME280;76643;42.822;23.352;2024-03-23T12:00:57;95130.84;;;18.44;26.49
86048;BME280;76643;42.822;23.352;2024-03-23T12:03:23;95129.19;;;18.87;27.41
86048;BME280;76643;42.822;23.352;2024-03-23T12:05:57;95121.00;;;18.89;24.51
86048;BME280;76643;42.822;23.352;2024-03-23T12:08:24;95125.09;;;19.12;27.46
86048;BME280;76643;42.822;23.352;2024-03-23T12:10:52;95119.19;;;18.98;26.30
86048;BME280;76643;42.822;23.352;2024-03-23T12:13:21;95109.03;;;19.05;24.98
86048;BME280;76643;42.822;23.352;2024-03-23T12:15:50;95100.38;;;18.57;25.63
86048;BME280;76643;42.822;23.352;2024-03-23T12:18:17;95112.44;;;19.14;26.37
86048;BME280;76643;42.822;23.352;2024-03-23T12:20:43;95105.16;;;18.55;25.30
86048;BME280;76643;42.822;23.352;2024-03-23T12:23:10;95109.94;;;19.00;26.53
86048;BME280;76643;42.822;23.352;2024-03-23T12:25:37;95096.91;;;19.43;25.21
86048;BME280;76643;42.822;23.352;2024-03-23T12:28:03;95084.88;;;19.42;23.59
86048;BME280;76643;42.822;23.352;2024-03-23T12:30:32;95078.56;;;19.60;24.62
86048;BME280;76643;42.822;23.352;2024-03-23T12:32:57;95083.19;;;19.63;24.67
86048;BME280;76643;42.822;23.352;2024-03-23T12:35:23;95082.72;;;18.79;26.58
86048;BME280;76643;42.822;23.352;2024-03-23T12:37:48;95072.75;;;18.28;24.98
86048;BME280;76643;42.822;23.352;2024-03-23T12:40:14;95067.22;;;18.61;25.64
86048;BME280;76643;42.822;23.352;2024-03-23T12:42:39;95064.19;;;18.67;24.55
86048;BME280;76643;42.822;23.352;2024-03-23T12:45:05;95060.13;;;18.00;24.71
86048;BME280;76643;42.822;23.352;2024-03-23T12:47:31;95057.91;;;18.85;25.85
86048;BME280;76643;42.822;23.352;2024-03-23T12:49:56;95047.88;;;18.87;23.33
86048;BME280;76643;42.822;23.352;2024-03-23T12:52:22;95048.59;;;18.40;23.51
86048;BME280;76643;42.822;23.352;2024-03-23T12:54:49;95035.00;;;18.30;22.86
86048;BME280;76643;42.822;23.352;2024-03-23T12:57:15;95039.41;;;18.43;23.04
86048;BME280;76643;42.822;23.352;2024-03-23T12:59:40;95023.44;;;18.31;25.37
86048;BME280;76643;42.822;23.352;2024-03-23T13:02:05;95029.50;;;18.79;23.94
86048;BME280;76643;42.822;23.352;2024-03-23T13:04:32;95032.75;;;18.93;23.38
86048;BME280;76643;42.822;23.352;2024-03-23T13:06:58;95019.63;;;18.84;24.52
86048;BME280;76643;42.822;23.352;2024-03-23T13:09:23;95024.63;;;19.20;25.23
86048;BME280;76643;42.822;23.352;2024-03-23T13:11:48;95020.00;;;19.26;25.27
86048;BME280;76643;42.822;23.352;2024-03-23T13:14:14;95010.63;;;18.68;23.20
86048;BME280;76643;42.822;23.352;2024-03-23T13:16:42;95008.25;;;19.14;24.75
86048;BME280;76643;42.822;23.352;2024-03-23T13:19:07;94996.22;;;19.39;23.00
86048;BME280;76643;42.822;23.352;2024-03-23T13:21:32;94997.88;;;18.36;22.33
86048;BME280;76643;42.822;23.352;2024-03-23T13:23:58;94999.19;;;18.56;21.82
86048;BME280;76643;42.822;23.352;2024-03-23T13:26:23;94993.50;;;18.54;22.59
86048;BME280;76643;42.822;23.352;2024-03-23T13:28:49;94996.38;;;18.44;22.80
86048;BME280;76643;42.822;23.352;2024-03-23T13:31:14;94993.56;;;18.88;22.31
86048;BME280;76643;42.822;23.352;2024-03-23T13:33:39;94981.47;;;18.70;23.31
86048;BME280;76643;42.822;23.352;2024-03-23T13:36:07;94992.03;;;19.04;21.16
86048;BME280;76643;42.822;23.352;2024-03-23T13:38:33;94983.84;;;18.41;21.20
86048;BME280;76643;42.822;23.352;2024-03-23T13:40:59;94981.84;;;18.38;21.57
86048;BME280;76643;42.822;23.352;2024-03-23T13:43:26;94976.34;;;18.48;22.19
86048;BME280;76643;42.822;23.352;2024-03-23T13:45:55;94972.28;;;18.81;21.47
86048;BME280;76643;42.822;23.352;2024-03-23T13:48:22;94971.72;;;18.45;21.45
86048;BME280;76643;42.822;23.352;2024-03-23T13:50:56;94973.41;;;18.49;21.34
86048;BME280;76643;42.822;23.352;2024-03-23T13:53:21;94964.53;;;17.36;21.53
86048;BME280;76643;42.822;23.352;2024-03-23T13:55:49;94965.78;;;17.61;23.02
86048;BME280;76643;42.822;23.352;2024-03-23T13:58:15;94962.44;;;17.99;22.70